Terminal Aerodrome Forecast
Issued by NWS Blacksburg, VA

Current Version | Previous Version | Graphics & Text | Print | Product List | Glossary On
Versions: 1 2 3 4 5 6 7 8 9 10 11 12 13 14 15
000
FTUS41 KRNK 132321
TAFBLF
TAF
KBLF 132321Z 1400/1424 22010G20KT P6SM -SN BKN060
     FM140200 24013G22KT P6SM -SN SCT040 OVC080
      TEMPO 1405/1406 4SM -SHSN OVC040
     FM140600 26017G29KT P6SM VCSH BKN025 WS020/27045KT
     FM140800 28015G25KT P6SM BKN025
     FM142200 30005KT P6SM BKN035=

USA.gov is the U.S. government's official web portal to all federal, state and local government web resources and services.